createdAt,value
2022-12-26T00:01:26.304Z,6.33
2022-12-26T00:04:48.081Z,2.83
2022-12-26T00:07:17.243Z,6.50
2022-12-26T00:10:02.538Z,3.47
2022-12-26T00:12:47.894Z,4.57
2022-12-26T00:15:33.494Z,3.83
2022-12-26T00:18:18.766Z,3.87
2022-12-26T00:21:07.420Z,4.30
2022-12-26T00:23:54.362Z,4.47
2022-12-26T00:26:39.784Z,3.23
2022-12-26T00:29:25.095Z,3.90
2022-12-26T00:32:10.883Z,3.03
2022-12-26T00:34:57.065Z,5.23
2022-12-26T00:37:42.352Z,5.40
2022-12-26T00:40:27.549Z,4.57
2022-12-26T00:43:12.750Z,2.53
2022-12-26T00:45:58.292Z,3.80
2022-12-26T00:48:44.216Z,3.03
2022-12-26T00:51:29.704Z,4.03
2022-12-26T00:54:14.937Z,4.13
2022-12-26T00:57:00.257Z,3.57
2022-12-26T00:59:45.516Z,3.30
2022-12-26T01:02:40.131Z,5.67
2022-12-26T01:05:26.549Z,5.93
2022-12-26T01:08:22.342Z,3.40
2022-12-26T01:11:12.365Z,3.23
2022-12-26T01:13:58.016Z,2.83
2022-12-26T01:16:45.850Z,2.70
2022-12-26T01:19:31.045Z,3.57
2022-12-26T01:22:16.629Z,4.47
2022-12-26T01:25:01.710Z,2.50
2022-12-26T01:27:47.224Z,2.80
2022-12-26T01:30:32.809Z,2.50
2022-12-26T01:33:18.189Z,3.63
2022-12-26T01:36:03.717Z,4.60
2022-12-26T01:38:49.243Z,3.10
2022-12-26T01:41:34.579Z,4.53
2022-12-26T01:44:57.558Z,3.70
2022-12-26T01:47:49.349Z,3.63
2022-12-26T01:50:57.116Z,3.27
2022-12-26T01:53:53.690Z,2.50
2022-12-26T01:56:42.473Z,2.63
2022-12-26T01:59:32.110Z,3.60
2022-12-26T02:02:19.325Z,3.40
2022-12-26T02:05:23.902Z,3.20
2022-12-26T02:08:15.971Z,3.30
2022-12-26T02:11:39.154Z,2.43
2022-12-26T02:14:25.085Z,3.83
2022-12-26T02:17:11.083Z,2.43
2022-12-26T02:20:11.471Z,2.17
2022-12-26T02:23:25.193Z,2.47
2022-12-26T02:26:37.351Z,2.58
2022-12-26T02:29:28.472Z,2.23
2022-12-26T02:32:22.910Z,3.20
2022-12-26T02:35:23.805Z,2.07
2022-12-26T02:38:17.078Z,2.17
2022-12-26T02:41:20.717Z,2.53
2022-12-26T02:47:32.596Z,2.40
2022-12-26T02:50:43.197Z,2.70
2022-12-26T02:53:52.697Z,1.73
2022-12-26T02:57:08.484Z,2.30
2022-12-26T03:00:33.867Z,4.60
2022-12-26T03:03:41.324Z,2.17
2022-12-26T03:07:00.854Z,2.33
2022-12-26T03:10:08.289Z,1.60
2022-12-26T03:13:11.813Z,3.00
2022-12-26T03:19:08.900Z,2.10
2022-12-26T03:21:56.115Z,1.90
2022-12-26T03:25:01.625Z,3.20
2022-12-26T03:27:47.870Z,1.73
2022-12-26T03:30:52.032Z,1.67
2022-12-26T03:34:01.385Z,2.20
2022-12-26T03:37:11.384Z,2.93
2022-12-26T03:40:31.248Z,2.50
2022-12-26T03:44:00.222Z,2.73
2022-12-26T03:47:10.243Z,2.40
2022-12-26T03:50:21.842Z,2.57
2022-12-26T03:53:38.694Z,1.70
2022-12-26T03:57:11.104Z,1.87
2022-12-26T04:00:21.306Z,2.27
2022-12-26T04:03:31.471Z,1.67
2022-12-26T04:06:41.319Z,2.03
2022-12-26T04:09:55.036Z,2.47
2022-12-26T04:13:03.427Z,3.10
2022-12-26T04:16:12.421Z,2.33
2022-12-26T04:19:26.865Z,2.10
2022-12-26T04:22:41.011Z,2.37
2022-12-26T04:28:56.351Z,2.27
2022-12-26T04:35:17.302Z,1.83
2022-12-26T04:38:23.799Z,2.07
2022-12-26T04:41:30.572Z,2.20
2022-12-26T04:44:19.043Z,1.33
2022-12-26T04:47:04.293Z,2.80
2022-12-26T04:50:08.189Z,1.30
2022-12-26T04:52:58.955Z,1.90
2022-12-26T04:55:44.947Z,1.80
2022-12-26T04:58:30.409Z,1.73
2022-12-26T05:01:34.185Z,1.33
2022-12-26T05:04:39.182Z,1.43
2022-12-26T05:07:47.851Z,1.80
2022-12-26T05:10:33.209Z,1.10
2022-12-26T05:16:36.606Z,1.90
2022-12-26T05:19:40.118Z,1.53
2022-12-26T05:22:48.125Z,1.90
2022-12-26T05:25:55.988Z,1.93
2022-12-26T05:28:41.864Z,1.43
2022-12-26T05:31:34.711Z,1.57
2022-12-26T05:34:21.597Z,2.27
2022-12-26T05:37:06.910Z,1.20
2022-12-26T05:39:52.210Z,1.47
2022-12-26T05:42:37.766Z,4.07
2022-12-26T05:45:23.437Z,1.30
2022-12-26T05:48:08.648Z,1.70
2022-12-26T05:50:58.930Z,2.40
2022-12-26T05:53:44.436Z,2.50
2022-12-26T05:56:30.147Z,1.70
2022-12-26T05:59:15.507Z,4.33
2022-12-26T06:02:01.278Z,3.00
2022-12-26T06:04:46.724Z,2.30
2022-12-26T06:07:32.242Z,2.40
2022-12-26T06:10:17.944Z,2.43
2022-12-26T06:13:03.677Z,1.60
2022-12-26T06:15:52.254Z,1.67
2022-12-26T06:18:38.334Z,1.30
2022-12-26T06:21:24.690Z,1.57
2022-12-26T06:24:09.892Z,1.33
2022-12-26T06:26:55.238Z,1.20
2022-12-26T06:29:40.409Z,1.63
2022-12-26T06:32:25.849Z,1.33
2022-12-26T06:37:55.234Z,2.73
2022-12-26T06:40:41.054Z,1.37
2022-12-26T06:43:26.088Z,1.97
2022-12-26T06:46:17.188Z,1.63
2022-12-26T06:49:02.949Z,2.20
2022-12-26T06:51:47.736Z,3.00
2022-12-26T06:54:32.807Z,2.23
2022-12-26T06:57:18.310Z,1.67
2022-12-26T07:00:04.091Z,2.37
2022-12-26T07:02:51.584Z,2.20
2022-12-26T07:05:37.961Z,1.43
2022-12-26T07:08:23.205Z,3.03
2022-12-26T07:11:21.242Z,2.07
2022-12-26T07:14:07.453Z,2.60
2022-12-26T07:16:52.773Z,1.67
2022-12-26T07:19:38.127Z,1.17
2022-12-26T07:22:23.334Z,1.63
2022-12-26T07:25:08.974Z,2.83
2022-12-26T07:27:54.642Z,2.67
2022-12-26T07:30:39.900Z,2.47
2022-12-26T07:33:25.432Z,1.77
2022-12-26T07:36:10.639Z,2.13
2022-12-26T07:38:55.965Z,2.73
2022-12-26T07:41:59.571Z,1.73
2022-12-26T07:47:30.445Z,3.13
2022-12-26T07:50:15.794Z,3.67
2022-12-26T07:53:01.105Z,2.67
2022-12-26T07:55:46.732Z,3.13
2022-12-26T07:58:32.579Z,3.77
2022-12-26T08:01:19.013Z,2.50
2022-12-26T08:04:04.936Z,3.23
2022-12-26T08:06:50.172Z,2.70
2022-12-26T08:09:36.195Z,2.13
2022-12-26T08:12:21.738Z,3.37
2022-12-26T08:15:08.193Z,3.03
2022-12-26T08:17:54.226Z,3.20
2022-12-26T08:20:39.638Z,3.07
2022-12-26T08:23:25.038Z,4.30
2022-12-26T08:26:13.326Z,2.97
2022-12-26T08:29:00.621Z,5.40
2022-12-26T08:31:46.108Z,4.63
2022-12-26T08:34:35.599Z,2.73
2022-12-26T08:37:21.190Z,3.23
2022-12-26T08:40:09.121Z,3.73
2022-12-26T08:43:12.296Z,4.70
2022-12-26T08:46:05.810Z,5.70
2022-12-26T08:48:51.972Z,4.53
2022-12-26T08:51:37.616Z,4.63
2022-12-26T08:54:23.606Z,3.40
2022-12-26T08:57:09.624Z,4.63
2022-12-26T08:59:55.236Z,4.27
2022-12-26T09:02:40.550Z,4.00
2022-12-26T09:05:27.270Z,5.27
2022-12-26T09:08:13.418Z,3.10
2022-12-26T09:11:11.034Z,4.30
2022-12-26T09:13:59.020Z,5.07
2022-12-26T09:16:50.391Z,4.80
2022-12-26T09:19:36.862Z,2.27
2022-12-26T09:22:40.932Z,2.97
2022-12-26T09:25:27.240Z,3.67
2022-12-26T09:28:12.964Z,5.83
2022-12-26T09:31:04.517Z,5.83
2022-12-26T09:33:50.825Z,4.43
2022-12-26T09:36:38.633Z,5.47
2022-12-26T09:39:24.543Z,4.07
2022-12-26T09:42:41.707Z,3.67
2022-12-26T09:45:51.031Z,6.07
2022-12-26T09:49:12.139Z,3.57
2022-12-26T09:52:02.179Z,3.77
2022-12-26T09:55:00.404Z,4.87
2022-12-26T09:57:52.229Z,6.27
2022-12-26T10:00:45.960Z,5.00
2022-12-26T10:03:38.154Z,3.78
2022-12-26T10:06:25.019Z,3.50
2022-12-26T10:09:13.631Z,4.20
2022-12-26T10:12:04.970Z,3.27
2022-12-26T10:14:59.702Z,2.43
2022-12-26T10:17:48.137Z,3.80
2022-12-26T10:20:53.133Z,2.83
2022-12-26T10:23:48.896Z,4.00
2022-12-26T10:26:41.621Z,4.50
2022-12-26T10:29:33.714Z,6.72
2022-12-26T10:32:38.078Z,4.93
2022-12-26T10:35:53.051Z,3.97
2022-12-26T10:38:44.327Z,3.87
2022-12-26T10:41:40.204Z,6.93
2022-12-26T10:44:28.267Z,7.20
2022-12-26T10:47:22.744Z,8.20
2022-12-26T10:50:16.775Z,3.00
2022-12-26T10:53:05.539Z,3.80
2022-12-26T10:55:51.117Z,4.57
2022-12-26T10:58:38.379Z,3.43
2022-12-26T11:01:36.077Z,4.30
2022-12-26T11:04:52.825Z,4.10
2022-12-26T11:07:36.196Z,2.93
2022-12-26T11:10:25.585Z,4.20
2022-12-26T11:13:20.805Z,5.87
2022-12-26T11:16:07.863Z,3.80
2022-12-26T11:18:54.003Z,7.13
2022-12-26T11:21:40.137Z,7.83
2022-12-26T11:24:25.696Z,7.43
2022-12-26T11:27:20.401Z,3.60
2022-12-26T11:30:20.840Z,5.97
2022-12-26T11:33:14.773Z,5.07
2022-12-26T11:36:22.492Z,3.35
2022-12-26T11:39:20.806Z,4.00
2022-12-26T11:42:20.649Z,3.43
2022-12-26T11:45:11.205Z,3.33
2022-12-26T11:48:00.501Z,6.10
2022-12-26T11:50:46.572Z,2.37
2022-12-26T11:53:34.612Z,2.07
2022-12-26T11:56:26.022Z,2.53
2022-12-26T11:59:20.537Z,4.10
2022-12-26T12:02:18.435Z,6.47
2022-12-26T12:05:14.221Z,3.50
2022-12-26T12:08:18.846Z,4.47
2022-12-26T12:11:10.294Z,8.90
2022-12-26T12:14:10.940Z,4.57
2022-12-26T12:17:26.402Z,1.80
2022-12-26T12:20:41.363Z,3.33
2022-12-26T12:23:48.286Z,3.63
2022-12-26T12:26:57.591Z,2.47
2022-12-26T12:30:22.355Z,1.60
2022-12-26T12:33:35.567Z,4.07
2022-12-26T12:36:59.153Z,2.03
2022-12-26T12:39:52.158Z,4.90
2022-12-26T12:43:01.593Z,1.88
2022-12-26T12:46:26.045Z,4.67
2022-12-26T12:49:49.329Z,2.13
2022-12-26T12:52:48.141Z,5.13
2022-12-26T12:55:48.213Z,3.80
2022-12-26T12:59:04.081Z,2.60
2022-12-26T13:01:57.761Z,5.57
2022-12-26T13:04:48.917Z,2.67
2022-12-26T13:07:46.952Z,3.53
2022-12-26T13:10:35.959Z,3.07
2022-12-26T13:13:37.557Z,5.73
2022-12-26T13:16:27.965Z,5.07
2022-12-26T13:19:20.419Z,5.00
2022-12-26T13:22:57.891Z,3.05
2022-12-26T13:26:01.520Z,6.77
2022-12-26T13:28:56.925Z,4.27
2022-12-26T13:31:43.330Z,3.08
2022-12-26T13:34:28.969Z,3.70
2022-12-26T13:37:32.631Z,3.17
2022-12-26T13:43:39.232Z,4.20
2022-12-26T13:46:38.661Z,2.90
2022-12-26T13:49:39.716Z,3.13
2022-12-26T13:52:39.024Z,3.83
2022-12-26T13:55:42.083Z,4.40
2022-12-26T13:58:39.449Z,3.90
2022-12-26T14:01:43.876Z,3.83
2022-12-26T14:05:01.391Z,2.60
2022-12-26T14:07:59.848Z,2.33
2022-12-26T14:10:48.344Z,3.13
2022-12-26T14:13:45.631Z,4.93
2022-12-26T14:16:31.119Z,2.40
2022-12-26T14:19:19.796Z,2.03
2022-12-26T14:22:23.676Z,2.97
2022-12-26T14:25:10.358Z,2.93
2022-12-26T14:28:32.686Z,3.23
2022-12-26T14:31:27.065Z,1.87
2022-12-26T14:34:27.879Z,1.90
2022-12-26T14:37:41.555Z,4.07
2022-12-26T14:40:29.192Z,1.60
2022-12-26T14:43:17.360Z,2.30
2022-12-26T14:46:24.346Z,1.83
2022-12-26T14:49:36.387Z,3.77
2022-12-26T14:52:24.579Z,1.43
2022-12-26T14:56:01.479Z,1.50
2022-12-26T14:58:51.305Z,2.00
2022-12-26T15:01:36.617Z,2.43
2022-12-26T15:04:57.104Z,2.30
2022-12-26T15:08:19.797Z,1.33
2022-12-26T15:11:23.352Z,2.20
2022-12-26T15:14:46.321Z,2.23
2022-12-26T15:18:02.918Z,1.92
2022-12-26T15:21:03.786Z,1.53
2022-12-26T15:24:21.068Z,3.20
2022-12-26T15:27:38.364Z,1.53
2022-12-26T15:30:52.703Z,1.40
2022-12-26T15:34:02.799Z,1.73
2022-12-26T15:37:19.087Z,2.83
2022-12-26T15:40:27.191Z,1.37
2022-12-26T15:43:49.771Z,2.23
2022-12-26T15:46:58.298Z,1.57
2022-12-26T15:49:52.608Z,1.57
2022-12-26T15:52:59.896Z,2.77
2022-12-26T15:55:57.737Z,1.83
2022-12-26T15:58:58.079Z,1.13
2022-12-26T16:01:46.287Z,1.57
2022-12-26T16:05:11.613Z,1.33
2022-12-26T16:08:15.211Z,1.53
2022-12-26T16:11:22.536Z,1.75
2022-12-26T16:14:13.961Z,2.03
2022-12-26T16:17:14.559Z,1.70
2022-12-26T16:19:59.874Z,1.60
2022-12-26T16:22:47.239Z,1.63
2022-12-26T16:25:37.697Z,1.70
2022-12-26T16:28:31.583Z,1.80
2022-12-26T16:31:23.686Z,2.00
2022-12-26T16:34:35.865Z,2.10
2022-12-26T16:37:24.368Z,2.23
2022-12-26T16:40:17.798Z,3.50
2022-12-26T16:43:22.034Z,1.80
2022-12-26T16:46:11.472Z,1.37
2022-12-26T16:48:59.474Z,1.40
2022-12-26T16:51:48.267Z,1.60
2022-12-26T16:54:39.813Z,1.50
2022-12-26T16:57:26.058Z,1.23
2022-12-26T17:00:18.103Z,1.47
2022-12-26T17:03:10.624Z,1.63
2022-12-26T17:05:57.285Z,2.58
2022-12-26T17:08:47.436Z,1.50
2022-12-26T17:11:37.132Z,1.80
2022-12-26T17:14:37.147Z,2.10
2022-12-26T17:17:22.416Z,1.47
2022-12-26T17:20:22.807Z,0.90
2022-12-26T17:23:37.611Z,1.20
2022-12-26T17:26:29.656Z,1.53
2022-12-26T17:29:53.259Z,1.53
2022-12-26T17:32:45.201Z,1.52
2022-12-26T17:36:21.311Z,0.90
2022-12-26T17:38:40.702Z,0.67
2022-12-26T17:41:26.141Z,0.90
2022-12-26T17:44:35.600Z,1.03
2022-12-26T17:47:28.389Z,1.67
2022-12-26T17:50:14.034Z,2.22
2022-12-26T17:53:04.321Z,1.10
2022-12-26T17:55:51.171Z,1.03
2022-12-26T17:58:36.713Z,1.10
2022-12-26T18:01:22.456Z,0.90
2022-12-26T18:04:07.706Z,1.00
2022-12-26T18:06:52.920Z,1.37
2022-12-26T18:09:38.353Z,0.70
2022-12-26T18:12:23.848Z,1.47
2022-12-26T18:15:09.625Z,1.20
2022-12-26T18:17:55.656Z,0.93
2022-12-26T18:20:40.832Z,0.90
2022-12-26T18:23:26.078Z,1.07
2022-12-26T18:26:31.247Z,1.90
2022-12-26T18:29:16.651Z,1.23
2022-12-26T18:32:01.991Z,0.93
2022-12-26T18:34:47.470Z,1.53
2022-12-26T18:37:32.949Z,0.83
2022-12-26T18:40:32.911Z,1.80
2022-12-26T18:43:18.285Z,0.80
2022-12-26T18:46:03.918Z,1.47
2022-12-26T18:48:50.048Z,1.43
2022-12-26T18:51:37.787Z,1.90
2022-12-26T18:54:23.120Z,1.10
2022-12-26T18:57:15.922Z,1.03
2022-12-26T19:00:01.645Z,0.95
2022-12-26T19:02:47.708Z,1.87
2022-12-26T19:05:34.666Z,1.47
2022-12-26T19:08:20.187Z,0.80
2022-12-26T19:11:05.619Z,0.80
2022-12-26T19:13:50.988Z,1.07
2022-12-26T19:16:39.506Z,1.40
2022-12-26T19:19:26.741Z,1.00
2022-12-26T19:22:12.025Z,0.83
2022-12-26T19:24:57.228Z,2.10
2022-12-26T19:27:42.839Z,1.07
2022-12-26T19:30:31.204Z,1.47
2022-12-26T19:33:19.139Z,2.97
2022-12-26T19:36:06.661Z,2.37
2022-12-26T19:38:54.036Z,1.97
2022-12-26T19:41:39.535Z,6.33
2022-12-26T19:44:25.133Z,1.37
2022-12-26T19:47:13.028Z,2.33
2022-12-26T19:49:58.528Z,1.87
2022-12-26T19:52:43.951Z,3.60
2022-12-26T19:55:29.143Z,1.33
2022-12-26T19:58:14.749Z,2.47
2022-12-26T20:01:12.029Z,1.20
2022-12-26T20:04:00.679Z,1.30
2022-12-26T20:06:46.110Z,1.70
2022-12-26T20:09:31.998Z,2.17
2022-12-26T20:12:17.300Z,1.33
2022-12-26T20:15:03.028Z,2.40
2022-12-26T20:17:49.152Z,1.23
2022-12-26T20:20:35.132Z,1.40
2022-12-26T20:23:20.848Z,0.80
2022-12-26T20:26:10.527Z,1.57
2022-12-26T20:29:04.174Z,1.40
2022-12-26T20:31:50.067Z,2.13
2022-12-26T20:34:36.219Z,1.43
2022-12-26T20:37:21.938Z,1.70
2022-12-26T20:40:08.029Z,1.93
2022-12-26T20:42:53.424Z,1.80
2022-12-26T20:45:38.754Z,1.43
2022-12-26T20:48:24.986Z,1.33
2022-12-26T20:51:15.395Z,1.67
2022-12-26T20:54:01.927Z,1.00
2022-12-26T20:56:47.336Z,2.50
2022-12-26T20:59:32.562Z,1.23
2022-12-26T21:02:18.206Z,2.20
2022-12-26T21:05:04.571Z,1.90
2022-12-26T21:07:50.164Z,2.07
2022-12-26T21:10:35.814Z,3.83
2022-12-26T21:13:20.886Z,5.13
2022-12-26T21:16:12.328Z,1.20
2022-12-26T21:18:58.598Z,1.13
2022-12-26T21:21:46.641Z,1.47
2022-12-26T21:24:32.985Z,1.17
2022-12-26T21:27:18.343Z,2.00
2022-12-26T21:30:04.634Z,2.87
2022-12-26T21:32:49.853Z,1.00
2022-12-26T21:35:37.530Z,2.67
2022-12-26T21:38:28.152Z,1.33
2022-12-26T21:41:13.754Z,1.77
2022-12-26T21:43:59.471Z,2.23
2022-12-26T21:46:45.295Z,2.20
2022-12-26T21:49:30.797Z,1.63
2022-12-26T21:52:16.174Z,1.40
2022-12-26T21:55:20.162Z,2.60
2022-12-26T21:58:07.520Z,1.10
2022-12-26T22:00:52.780Z,1.00
2022-12-26T22:03:57.624Z,2.40
2022-12-26T22:06:43.014Z,0.93
2022-12-26T22:09:28.314Z,1.30
2022-12-26T22:12:32.230Z,1.80
2022-12-26T22:15:36.102Z,2.30
2022-12-26T22:18:21.288Z,1.83
2022-12-26T22:21:06.969Z,1.10
2022-12-26T22:23:53.619Z,0.80
2022-12-26T22:26:39.146Z,1.33
2022-12-26T22:29:24.425Z,1.50
2022-12-26T22:32:09.459Z,1.00
2022-12-26T22:34:54.892Z,1.47
2022-12-26T22:37:40.210Z,2.00
2022-12-26T22:40:25.626Z,1.20
2022-12-26T22:43:10.800Z,1.80
2022-12-26T22:45:56.936Z,0.73
2022-12-26T22:48:42.310Z,1.70
2022-12-26T22:51:27.857Z,1.17
2022-12-26T22:54:14.605Z,1.60
2022-12-26T22:56:59.878Z,1.20
2022-12-26T23:02:50.715Z,0.97
2022-12-26T23:05:36.907Z,1.37
2022-12-26T23:08:25.839Z,1.47
2022-12-26T23:11:11.497Z,1.00
2022-12-26T23:13:57.953Z,1.33
2022-12-26T23:16:58.417Z,0.80
2022-12-26T23:20:06.728Z,1.30
2022-12-26T23:22:52.492Z,1.90
2022-12-26T23:25:39.042Z,1.50
2022-12-26T23:28:43.084Z,1.27
2022-12-26T23:31:28.491Z,1.67
2022-12-26T23:34:14.472Z,1.97
2022-12-26T23:37:00.296Z,1.00
2022-12-26T23:39:46.043Z,0.80
2022-12-26T23:42:31.253Z,1.53
2022-12-26T23:45:17.079Z,0.83
2022-12-26T23:48:02.403Z,0.80
2022-12-26T23:50:47.676Z,1.87
2022-12-26T23:53:33.675Z,0.80
2022-12-26T23:56:19.211Z,0.77
2022-12-26T23:59:05.320Z,1.90
